createdAt,value
2016-02-11T00:00:31.490Z,0
2016-02-11T00:01:31.493Z,0
2016-02-11T00:02:31.432Z,0
2016-02-11T00:03:31.435Z,0
2016-02-11T00:04:31.391Z,0
2016-02-11T00:05:31.363Z,0
2016-02-11T00:06:31.319Z,0
2016-02-11T00:07:31.291Z,0
2016-02-11T00:08:31.277Z,0
2016-02-11T00:09:31.280Z,0
2016-02-11T00:10:31.221Z,0
2016-02-11T00:11:31.224Z,0
2016-02-11T00:12:31.163Z,0
2016-02-11T00:13:31.135Z,0
2016-02-11T00:14:31.109Z,0
2016-02-11T00:15:31.111Z,0
2016-02-11T00:16:31.051Z,0
2016-02-11T00:17:31.024Z,0
2016-02-11T00:18:30.996Z,0
2016-02-11T00:19:30.967Z,0
2016-02-11T00:20:30.938Z,0
2016-02-11T00:21:30.941Z,0
2016-02-11T00:22:30.883Z,0
2016-02-11T00:23:30.885Z,0
2016-02-11T00:24:30.825Z,0
2016-02-11T00:25:30.830Z,0
2016-02-11T00:26:30.770Z,0
2016-02-11T00:27:30.929Z,0
2016-02-11T00:28:30.745Z,0
2016-02-11T00:29:30.700Z,0
2016-02-11T00:30:30.696Z,0
2016-02-11T00:31:30.474Z,0
2016-02-11T00:32:30.624Z,0
2016-02-11T00:33:30.586Z,0
2016-02-11T00:34:30.561Z,0
2016-02-11T00:35:30.526Z,0
2016-02-11T00:36:30.529Z,0
2016-02-11T00:37:30.469Z,0
2016-02-11T00:38:30.456Z,0
2016-02-11T00:39:30.460Z,0
2016-02-11T00:40:30.400Z,0
2016-02-11T00:41:30.371Z,0
2016-02-11T00:42:30.344Z,0
2016-02-11T00:43:30.316Z,0
2016-02-11T00:44:30.271Z,0
2016-02-11T00:45:30.243Z,0
2016-02-11T00:46:30.245Z,0
2016-02-11T00:47:30.186Z,0
2016-02-11T00:48:30.157Z,0
2016-02-11T00:49:30.129Z,0
2016-02-11T00:50:30.100Z,0
2016-02-11T00:51:30.089Z,0
2016-02-11T00:52:30.092Z,0
2016-02-11T00:53:30.017Z,0
2016-02-11T00:54:30.019Z,0
2016-02-11T00:55:29.960Z,0
2016-02-11T00:56:29.947Z,0
2016-02-11T00:57:29.918Z,0
2016-02-11T00:58:29.874Z,0
2016-02-11T00:59:29.863Z,0
2016-02-11T01:00:29.819Z,0
2016-02-11T01:01:29.650Z,0
2016-02-11T01:02:29.777Z,0
2016-02-11T01:03:29.749Z,0
2016-02-11T01:04:29.704Z,0
2016-02-11T01:05:29.711Z,0
2016-02-11T01:06:29.667Z,0
2016-02-11T01:07:29.653Z,0
2016-02-11T01:08:29.595Z,0
2016-02-11T01:09:29.582Z,0
2016-02-11T01:10:29.568Z,0
2016-02-11T01:11:29.540Z,0
2016-02-11T01:12:29.481Z,0
2016-02-11T01:13:29.483Z,0
2016-02-11T01:14:29.439Z,0
2016-02-11T01:15:29.254Z,0
2016-02-11T01:16:29.382Z,0
2016-02-11T01:17:29.354Z,0
2016-02-11T01:18:29.340Z,0
2016-02-11T01:19:29.297Z,0
2016-02-11T01:20:29.268Z,0
2016-02-11T01:21:29.256Z,0
2016-02-11T01:22:29.196Z,0
2016-02-11T01:23:29.199Z,0
2016-02-11T01:24:29.155Z,0
2016-02-11T01:25:29.130Z,0
2016-02-11T01:26:28.946Z,0
2016-02-11T01:27:28.917Z,0
2016-02-11T01:28:29.045Z,0
2016-02-11T01:29:29.016Z,0
2016-02-11T01:30:28.988Z,0
2016-02-11T01:31:28.975Z,0
2016-02-11T01:32:28.930Z,0
2016-02-11T01:33:28.890Z,0
2016-02-11T01:34:28.877Z,0
2016-02-11T01:35:28.864Z,0
2016-02-11T01:36:28.821Z,0
2016-02-11T01:37:28.777Z,0
2016-02-11T01:38:28.760Z,0
2016-02-11T01:39:28.731Z,0
2016-02-11T01:40:28.703Z,0
2016-02-11T01:41:28.675Z,0
2016-02-11T01:42:28.661Z,0
2016-02-11T01:43:28.617Z,0
2016-02-11T01:44:28.619Z,0
2016-02-11T01:45:28.577Z,0
2016-02-11T01:46:28.532Z,0
2016-02-11T01:47:28.503Z,0
2016-02-11T01:48:28.505Z,0
2016-02-11T01:49:28.462Z,0
2016-02-11T01:50:28.417Z,0
2016-02-11T01:51:28.389Z,0
2016-02-11T01:52:28.376Z,0
2016-02-11T01:53:28.348Z,0
2016-02-11T01:54:28.350Z,0
2016-02-11T01:55:28.274Z,0
2016-02-11T01:56:28.107Z,0
2016-02-11T01:57:28.235Z,0
2016-02-11T01:58:28.222Z,0
2016-02-11T01:59:28.161Z,0
2016-02-11T02:00:28.132Z,0
2016-02-11T02:01:28.136Z,0
2016-02-11T02:02:28.092Z,0
2016-02-11T02:03:28.048Z,0
2016-02-11T02:04:28.036Z,0
2016-02-11T02:05:28.007Z,0
2016-02-11T02:06:27.978Z,0
2016-02-11T02:07:27.950Z,0
2016-02-11T02:08:27.906Z,0
2016-02-11T02:09:27.893Z,0
2016-02-11T02:10:27.864Z,0
2016-02-11T02:11:27.835Z,0
2016-02-11T02:12:27.807Z,0
2016-02-11T02:13:27.809Z,0
2016-02-11T02:14:27.749Z,0
2016-02-11T02:15:27.721Z,0
2016-02-11T02:16:27.724Z,0
2016-02-11T02:17:27.665Z,0
2016-02-11T02:18:27.637Z,0
2016-02-11T02:19:27.624Z,0
2016-02-11T02:20:27.580Z,0
2016-02-11T02:21:27.550Z,0
2016-02-11T02:22:27.507Z,0
2016-02-11T02:23:27.525Z,0
2016-02-11T02:24:27.592Z,0
2016-02-11T02:25:27.453Z,0
2016-02-11T02:26:27.409Z,0
2016-02-11T02:27:27.412Z,0
2016-02-11T02:28:27.368Z,0
2016-02-11T02:29:27.356Z,0
2016-02-11T02:30:27.312Z,0
2016-02-11T02:31:27.283Z,0
2016-02-11T02:32:27.254Z,0
2016-02-11T02:33:27.226Z,0
2016-02-11T02:34:27.198Z,0
2016-02-11T02:35:27.153Z,0
2016-02-11T02:36:27.125Z,0
2016-02-11T02:37:27.095Z,0
2016-02-11T02:38:27.083Z,0
2016-02-11T02:39:27.055Z,0
2016-02-11T02:40:27.011Z,0
2016-02-11T02:41:26.981Z,0
2016-02-11T02:42:26.968Z,0
2016-02-11T02:43:26.924Z,0
2016-02-11T02:44:26.896Z,0
2016-02-11T02:45:26.883Z,0
2016-02-11T02:46:26.855Z,0
2016-02-11T02:47:26.827Z,0
2016-02-11T02:48:26.782Z,0
2016-02-11T02:49:26.035Z,0
2016-02-11T02:50:26.755Z,0
2016-02-11T02:51:26.696Z,0
2016-02-11T02:52:26.682Z,0
2016-02-11T02:53:26.638Z,0
2016-02-11T02:54:26.613Z,0
2016-02-11T02:55:26.601Z,0
2016-02-11T02:56:26.558Z,0
2016-02-11T02:57:26.544Z,0
2016-02-11T02:58:26.504Z,0
2016-02-11T02:59:26.475Z,0
2016-02-11T03:00:26.712Z,0
2016-02-11T03:01:26.903Z,0
2016-02-11T03:02:26.406Z,0
2016-02-11T03:03:26.377Z,0
2016-02-11T03:04:26.339Z,0
2016-02-11T03:05:26.327Z,0
2016-02-11T03:06:26.284Z,0
2016-02-11T03:07:26.239Z,0
2016-02-11T03:08:26.226Z,0
2016-02-11T03:09:26.198Z,0
2016-02-11T03:10:26.216Z,0
2016-02-11T03:11:26.141Z,0
2016-02-11T03:12:26.112Z,0
2016-02-11T03:13:26.083Z,0
2016-02-11T03:14:26.040Z,0
2016-02-11T03:15:26.027Z,0
2016-02-11T03:16:25.999Z,0
2016-02-11T03:17:25.959Z,0
2016-02-11T03:18:25.931Z,0
2016-02-11T03:19:25.933Z,0
2016-02-11T03:20:25.890Z,0
2016-02-11T03:21:25.861Z,0
2016-02-11T03:22:25.818Z,0
2016-02-11T03:23:25.789Z,0
2016-02-11T03:24:25.779Z,0
2016-02-11T03:25:25.734Z,0
2016-02-11T03:26:25.722Z,0
2016-02-11T03:27:25.693Z,0
2016-02-11T03:28:25.650Z,0
2016-02-11T03:29:25.637Z,0
2016-02-11T03:30:25.593Z,0
2016-02-11T03:31:25.579Z,0
2016-02-11T03:32:25.535Z,0
2016-02-11T03:33:25.523Z,0
2016-02-11T03:34:25.495Z,0
2016-02-11T03:35:25.465Z,0
2016-02-11T03:36:25.437Z,0
2016-02-11T03:37:25.457Z,0
2016-02-11T03:38:25.366Z,0
2016-02-11T03:39:25.337Z,0
2016-02-11T03:40:25.307Z,0
2016-02-11T03:41:25.326Z,0
2016-02-11T03:42:25.268Z,0
2016-02-11T03:43:25.223Z,0
2016-02-11T03:44:25.210Z,0
2016-02-11T03:45:25.196Z,0
2016-02-11T03:46:25.153Z,0
2016-02-11T03:47:25.124Z,0
2016-02-11T03:48:25.096Z,0
2016-02-11T03:49:25.067Z,0
2016-02-11T03:50:25.039Z,0
2016-02-11T03:51:25.009Z,0
2016-02-11T03:52:24.981Z,0
2016-02-11T03:53:24.968Z,0
2016-02-11T03:54:24.925Z,0
2016-02-11T03:55:24.905Z,0
2016-02-11T03:56:24.861Z,0
2016-02-11T03:57:24.848Z,0
2016-02-11T03:58:24.820Z,0
2016-02-11T03:59:24.791Z,0
2016-02-11T04:00:24.747Z,0
2016-02-11T04:01:24.734Z,0
2016-02-11T04:02:24.722Z,0
2016-02-11T04:03:24.677Z,0
2016-02-11T04:04:24.633Z,0
2016-02-11T04:05:24.621Z,0
2016-02-11T04:06:24.577Z,0
2016-02-11T04:07:24.563Z,0
2016-02-11T04:08:24.552Z,0
2016-02-11T04:09:24.507Z,0
2016-02-11T04:10:24.479Z,0
2016-02-11T04:11:24.450Z,0
2016-02-11T04:12:24.422Z,0
2016-02-11T04:13:24.393Z,0
2016-02-11T04:14:24.352Z,0
2016-02-11T04:15:24.338Z,0
2016-02-11T04:16:24.310Z,0
2016-02-11T04:17:24.296Z,0
2016-02-11T04:18:24.268Z,0
2016-02-11T04:19:24.224Z,0
2016-02-11T04:20:24.196Z,0
2016-02-11T04:21:24.166Z,0
2016-02-11T04:22:24.139Z,0
2016-02-11T04:23:24.111Z,0
2016-02-11T04:24:24.082Z,0
2016-02-11T04:25:24.069Z,0
2016-02-11T04:26:24.025Z,0
2016-02-11T04:27:23.985Z,0
2016-02-11T04:28:24.004Z,0
2016-02-11T04:29:23.929Z,0
2016-02-11T04:30:23.915Z,0
2016-02-11T04:31:23.887Z,0
2016-02-11T04:32:23.859Z,0
2016-02-11T04:33:23.829Z,0
2016-02-11T04:34:23.802Z,0
2016-02-11T04:35:23.773Z,0
2016-02-11T04:36:23.745Z,0
2016-02-11T04:37:23.715Z,0
2016-02-11T04:38:23.686Z,0
2016-02-11T04:39:23.661Z,0
2016-02-11T04:40:23.633Z,0
2016-02-11T04:41:23.603Z,0
2016-02-11T04:42:23.575Z,0
2016-02-11T04:43:23.561Z,0
2016-02-11T04:44:23.518Z,0
2016-02-11T04:45:23.489Z,0
2016-02-11T04:46:23.461Z,0
2016-02-11T04:47:23.449Z,0
2016-02-11T04:48:23.405Z,0
2016-02-11T04:49:23.377Z,0
2016-02-11T04:50:23.348Z,0
2016-02-11T04:51:23.320Z,0
2016-02-11T04:52:23.290Z,0
2016-02-11T04:53:23.278Z,0
2016-02-11T04:54:23.234Z,0
2016-02-11T04:55:23.206Z,0
2016-02-11T04:56:23.177Z,0
2016-02-11T04:57:23.153Z,0
2016-02-11T04:58:23.124Z,0
2016-02-11T04:59:23.098Z,0
2016-02-11T05:00:23.085Z,0
2016-02-11T05:01:23.041Z,0
2016-02-11T05:02:23.012Z,0
2016-02-11T05:03:22.984Z,0
2016-02-11T05:04:22.971Z,0
2016-02-11T05:05:22.944Z,0
2016-02-11T05:06:22.899Z,0
2016-02-11T05:07:22.887Z,0
2016-02-11T05:08:22.842Z,0
2016-02-11T05:09:22.814Z,0
2016-02-11T05:10:22.801Z,0
2016-02-11T05:11:22.758Z,0
2016-02-11T05:12:22.728Z,0
2016-02-11T05:13:22.716Z,0
2016-02-11T05:14:22.671Z,0
2016-02-11T05:15:22.659Z,0
2016-02-11T05:16:22.614Z,0
2016-02-11T05:17:22.602Z,0
2016-02-11T05:18:22.401Z,0
2016-02-11T05:19:22.544Z,0
2016-02-11T05:20:22.515Z,0
2016-02-11T05:21:22.472Z,0
2016-02-11T05:22:22.443Z,0
2016-02-11T05:23:22.430Z,0
2016-02-11T05:24:22.401Z,0
2016-02-11T05:25:22.374Z,0
2016-02-11T05:26:22.354Z,0
2016-02-11T05:27:22.326Z,0
2016-02-11T05:28:22.281Z,0
2016-02-11T05:29:22.253Z,0
2016-02-11T05:30:22.224Z,0
2016-02-11T05:31:22.195Z,0
2016-02-11T05:32:22.183Z,0
2016-02-11T05:33:22.155Z,0
2016-02-11T05:34:22.110Z,0
2016-02-11T05:35:22.083Z,0
2016-02-11T05:36:22.054Z,0
2016-02-11T05:37:22.025Z,0
2016-02-11T05:38:22.012Z,0
2016-02-11T05:39:21.968Z,0
2016-02-11T05:40:21.956Z,0
2016-02-11T05:41:21.928Z,0
2016-02-11T05:42:21.899Z,0
2016-02-11T05:43:21.854Z,0
2016-02-11T05:44:21.857Z,0
2016-02-11T05:45:21.798Z,0
2016-02-11T05:46:21.785Z,0
2016-02-11T05:47:21.756Z,0
2016-02-11T05:48:21.728Z,0
2016-02-11T05:49:21.699Z,0
2016-02-11T05:50:21.656Z,0
2016-02-11T05:51:21.627Z,0
2016-02-11T05:52:21.615Z,0
2016-02-11T05:53:21.586Z,0
2016-02-11T05:54:21.562Z,0
2016-02-11T05:55:21.534Z,0
2016-02-11T05:56:21.505Z,0
2016-02-11T05:57:21.477Z,0
2016-02-11T05:58:21.434Z,0
2016-02-11T05:59:21.422Z,0
2016-02-11T06:00:21.409Z,0
2016-02-11T06:01:21.364Z,0
2016-02-11T06:02:21.336Z,0
2016-02-11T06:03:21.307Z,0
2016-02-11T06:04:21.278Z,0
2016-02-11T06:05:21.250Z,0
2016-02-11T06:06:21.253Z,0
2016-02-11T06:07:21.195Z,0
2016-02-11T06:08:21.182Z,0
2016-02-11T06:09:21.138Z,0
2016-02-11T06:10:21.125Z,0
2016-02-11T06:11:21.069Z,0
2016-02-11T06:12:21.041Z,0
2016-02-11T06:13:20.983Z,0
2016-02-11T06:14:20.972Z,0
2016-02-11T06:15:20.900Z,0
2016-02-11T06:16:20.866Z,0
2016-02-11T06:17:21.098Z,0
2016-02-11T06:18:21.050Z,0
2016-02-11T06:19:20.767Z,0
2016-02-11T06:20:20.732Z,0
2016-02-11T06:21:20.718Z,0
2016-02-11T06:22:20.672Z,0
2016-02-11T06:23:20.656Z,0
2016-02-11T06:24:20.626Z,0
2016-02-11T06:25:20.597Z,0
2016-02-11T06:26:20.569Z,0
2016-02-11T06:27:20.540Z,0
2016-02-11T06:28:20.511Z,0
2016-02-11T06:29:20.481Z,0
2016-02-11T06:30:20.465Z,0
2016-02-11T06:31:20.421Z,0
2016-02-11T06:32:20.393Z,0
2016-02-11T06:33:20.364Z,0
2016-02-11T06:34:20.350Z,0
2016-02-11T06:35:20.323Z,0
2016-02-11T06:36:20.280Z,0
2016-02-11T06:37:20.251Z,0
2016-02-11T06:38:20.237Z,0
2016-02-11T06:39:20.209Z,0
2016-02-11T06:40:20.164Z,0
2016-02-11T06:41:20.152Z,5
2016-02-11T06:42:20.123Z,5
2016-02-11T06:43:20.097Z,5
2016-02-11T06:44:20.067Z,5
2016-02-11T06:45:20.055Z,5
2016-02-11T06:46:20.011Z,5
2016-02-11T06:47:19.997Z,10
2016-02-11T06:48:19.953Z,10
2016-02-11T06:49:19.925Z,10
2016-02-11T06:50:19.912Z,10
2016-02-11T06:51:19.884Z,10
2016-02-11T06:52:19.840Z,10
2016-02-11T06:53:19.812Z,10
2016-02-11T06:54:19.790Z,15
2016-02-11T06:55:19.761Z,15
2016-02-11T06:56:19.732Z,20
2016-02-11T06:57:19.703Z,20
2016-02-11T06:58:19.676Z,25
2016-02-11T06:59:19.646Z,25
2016-02-11T07:00:19.620Z,25
2016-02-11T07:01:19.591Z,30
2016-02-11T07:02:19.563Z,35
2016-02-11T07:03:19.550Z,35
2016-02-11T07:04:19.505Z,35
2016-02-11T07:05:19.493Z,35
2016-02-11T07:06:19.464Z,40
2016-02-11T07:07:19.435Z,40
2016-02-11T07:08:19.407Z,45
2016-02-11T07:09:19.380Z,45
2016-02-11T07:10:19.367Z,45
2016-02-11T07:11:19.306Z,50
2016-02-11T07:12:19.294Z,50
2016-02-11T07:13:19.280Z,50
2016-02-11T07:14:19.237Z,55
2016-02-11T07:15:19.208Z,55
2016-02-11T07:16:19.164Z,60
2016-02-11T07:17:19.166Z,65
2016-02-11T07:18:19.122Z,65
2016-02-11T07:19:19.094Z,65
2016-02-11T07:20:19.080Z,70
2016-02-11T07:21:19.037Z,75
2016-02-11T07:22:18.993Z,85
2016-02-11T07:23:18.985Z,95
2016-02-11T07:24:18.972Z,95
2016-02-11T07:25:18.943Z,90
2016-02-11T07:26:18.915Z,90
2016-02-11T07:27:18.871Z,90
2016-02-11T07:28:18.842Z,90
2016-02-11T07:29:18.812Z,95
2016-02-11T07:30:18.801Z,100
2016-02-11T07:31:18.772Z,125
2016-02-11T07:32:18.728Z,120
2016-02-11T07:33:18.699Z,110
2016-02-11T07:34:18.671Z,105
2016-02-11T07:35:18.642Z,110
2016-02-11T07:36:18.614Z,115
2016-02-11T07:37:18.601Z,120
2016-02-11T07:38:18.572Z,115
2016-02-11T07:39:18.528Z,120
2016-02-11T07:40:18.515Z,130
2016-02-11T07:41:18.486Z,140
2016-02-11T07:42:18.442Z,150
2016-02-11T07:43:18.431Z,145
2016-02-11T07:44:18.401Z,155
2016-02-11T07:45:18.363Z,180
2016-02-11T07:46:18.335Z,170
2016-02-11T07:47:18.321Z,165
2016-02-11T07:48:18.293Z,160
2016-02-11T07:49:18.249Z,165
2016-02-11T07:50:18.252Z,170
2016-02-11T07:51:18.207Z,175
2016-02-11T07:52:18.178Z,185
2016-02-11T07:53:18.197Z,215
2016-02-11T07:54:18.169Z,220
2016-02-11T07:55:18.095Z,220
2016-02-11T07:56:18.086Z,230
2016-02-11T07:57:18.044Z,230
2016-02-11T07:58:18.000Z,230
2016-02-11T07:59:18.003Z,210
2016-02-11T08:00:17.958Z,205
2016-02-11T08:01:17.945Z,210
2016-02-11T08:02:17.901Z,225
2016-02-11T08:03:17.874Z,220
2016-02-11T08:04:17.845Z,220
2016-02-11T08:05:17.864Z,230
2016-02-11T08:06:17.803Z,225
2016-02-11T08:07:17.806Z,220
2016-02-11T08:08:17.730Z,210
2016-02-11T08:09:17.703Z,215
2016-02-11T08:10:17.673Z,220
2016-02-11T08:11:17.662Z,230
2016-02-11T08:12:17.634Z,255
2016-02-11T08:13:17.589Z,270
2016-02-11T08:14:17.591Z,290
2016-02-11T08:15:17.547Z,270
2016-02-11T08:16:17.503Z,260
2016-02-11T08:17:17.537Z,260
2016-02-11T08:18:17.461Z,255
2016-02-11T08:19:17.449Z,265
2016-02-11T08:20:17.437Z,305
2016-02-11T08:21:17.376Z,325
2016-02-11T08:22:17.349Z,310
2016-02-11T08:23:17.320Z,300
2016-02-11T08:24:17.306Z,295
2016-02-11T08:25:17.262Z,275
2016-02-11T08:26:17.265Z,290
2016-02-11T08:27:17.224Z,300
2016-02-11T08:28:17.179Z,295
2016-02-11T08:29:17.151Z,300
2016-02-11T08:30:17.139Z,290
2016-02-11T08:31:17.172Z,305
2016-02-11T08:32:17.097Z,310
2016-02-11T08:33:17.053Z,290
2016-02-11T08:34:17.040Z,275
2016-02-11T08:35:17.042Z,265
2016-02-11T08:36:16.967Z,260
2016-02-11T08:37:16.938Z,260
2016-02-11T08:38:16.925Z,270
2016-02-11T08:39:16.898Z,280
2016-02-11T08:40:16.884Z,280
2016-02-11T08:41:16.839Z,295
2016-02-11T08:42:16.827Z,300
2016-02-11T08:43:16.799Z,275
2016-02-11T08:44:16.770Z,250
2016-02-11T08:45:16.726Z,245
2016-02-11T08:46:16.728Z,255
2016-02-11T08:47:16.684Z,275
2016-02-11T08:48:16.671Z,305
2016-02-11T08:49:16.627Z,320
2016-02-11T08:50:16.599Z,320
2016-02-11T08:51:16.571Z,290
2016-02-11T08:52:16.557Z,280
2016-02-11T08:53:16.357Z,255
2016-02-11T08:54:16.485Z,245
2016-02-11T08:55:16.456Z,245
2016-02-11T08:56:16.459Z,245
2016-02-11T08:57:16.400Z,255
2016-02-11T08:58:16.393Z,255
2016-02-11T08:59:16.365Z,265
2016-02-11T09:00:16.321Z,295
2016-02-11T09:01:16.308Z,310
2016-02-11T09:02:16.280Z,345
2016-02-11T09:03:16.236Z,345
2016-02-11T09:04:16.223Z,320
2016-02-11T09:05:16.196Z,315
2016-02-11T09:06:16.167Z,360
2016-02-11T09:07:16.155Z,390
2016-02-11T09:08:16.110Z,400
2016-02-11T09:09:16.081Z,440
2016-02-11T09:10:16.069Z,470
2016-02-11T09:11:16.103Z,495
2016-02-11T09:12:15.996Z,500
2016-02-11T09:13:16.000Z,465
2016-02-11T09:14:15.956Z,460
2016-02-11T09:15:15.943Z,460
2016-02-11T09:16:15.899Z,410
2016-02-11T09:17:15.901Z,395
2016-02-11T09:18:15.857Z,400
2016-02-11T09:19:15.814Z,395
2016-02-11T09:20:15.882Z,370
2016-02-11T09:21:15.776Z,370
2016-02-11T09:22:15.747Z,380
2016-02-11T09:23:15.735Z,375
2016-02-11T09:24:16.127Z,380
2016-02-11T09:25:15.677Z,425
2016-02-11T09:26:15.648Z,440
2016-02-11T09:27:15.621Z,425
2016-02-11T09:28:15.591Z,410
2016-02-11T09:29:15.566Z,425
2016-02-11T09:30:15.576Z,460
2016-02-11T09:31:15.516Z,490
2016-02-11T09:32:15.487Z,475
2016-02-11T09:33:15.476Z,480
2016-02-11T09:34:15.432Z,500
2016-02-11T09:35:15.402Z,480
2016-02-11T09:36:15.390Z,470
2016-02-11T09:37:15.345Z,455
2016-02-11T09:38:15.347Z,470
2016-02-11T09:39:15.304Z,475
2016-02-11T09:40:15.275Z,455
2016-02-11T09:41:15.262Z,450
2016-02-11T09:42:15.234Z,470
2016-02-11T09:43:15.205Z,440
2016-02-11T09:44:15.192Z,420
2016-02-11T09:45:15.164Z,415
2016-02-11T09:46:15.150Z,445
2016-02-11T09:47:15.108Z,465
2016-02-11T09:48:15.080Z,445
2016-02-11T09:49:15.066Z,395
2016-02-11T09:50:15.039Z,395
2016-02-11T09:51:15.011Z,445
2016-02-11T09:52:14.983Z,485
2016-02-11T09:53:14.969Z,490
2016-02-11T09:54:14.925Z,490
2016-02-11T09:55:14.911Z,470
2016-02-11T09:56:14.883Z,470
2016-02-11T09:57:14.855Z,515
2016-02-11T09:58:14.842Z,555
2016-02-11T09:59:14.798Z,550
2016-02-11T10:00:14.800Z,520
2016-02-11T10:01:14.759Z,530
2016-02-11T10:02:14.979Z,520
2016-02-11T10:03:14.701Z,510
2016-02-11T10:04:14.532Z,545
2016-02-11T10:05:15.082Z,585
2016-02-11T10:06:14.647Z,580
2016-02-11T10:07:14.712Z,575
2016-02-11T10:08:14.589Z,550
2016-02-11T10:09:14.577Z,505
2016-02-11T10:10:14.533Z,495
2016-02-11T10:11:14.550Z,475
2016-02-11T10:12:14.492Z,470
2016-02-11T10:13:14.462Z,490
2016-02-11T10:14:14.450Z,510
2016-02-11T10:15:14.423Z,485
2016-02-11T10:16:14.409Z,470
2016-02-11T10:17:14.365Z,485
2016-02-11T10:18:14.446Z,520
2016-02-11T10:19:14.323Z,550
2016-02-11T10:20:14.278Z,565
2016-02-11T10:21:14.267Z,565
2016-02-11T10:22:14.253Z,615
2016-02-11T10:23:14.209Z,635
2016-02-11T10:24:14.212Z,655
2016-02-11T10:25:14.214Z,645
2016-02-11T10:26:14.170Z,620
2016-02-11T10:27:14.126Z,585
2016-02-11T10:28:14.097Z,565
2016-02-11T10:29:14.085Z,550
2016-02-11T10:30:14.041Z,545
2016-02-11T10:31:14.028Z,565
2016-02-11T10:32:14.001Z,565
2016-02-11T10:33:13.989Z,570
2016-02-11T10:34:13.960Z,575
2016-02-11T10:35:13.933Z,570
2016-02-11T10:36:13.904Z,515
2016-02-11T10:37:13.907Z,475
2016-02-11T10:38:13.847Z,480
2016-02-11T10:39:13.834Z,500
2016-02-11T10:40:13.822Z,525
2016-02-11T10:41:13.621Z,525
2016-02-11T10:42:13.765Z,535
2016-02-11T10:43:13.736Z,555
2016-02-11T10:44:13.724Z,570
2016-02-11T10:45:13.679Z,585
2016-02-11T10:46:13.667Z,590
2016-02-11T10:47:13.654Z,605
2016-02-11T10:48:13.625Z,605
2016-02-11T10:49:13.613Z,620
2016-02-11T10:50:13.568Z,620
2016-02-11T10:51:13.556Z,590
2016-02-11T10:52:13.529Z,560
2016-02-11T10:53:13.500Z,485
2016-02-11T10:54:13.488Z,455
2016-02-11T10:55:13.459Z,445
2016-02-11T10:56:13.415Z,465
2016-02-11T10:57:13.668Z,455
2016-02-11T10:58:13.407Z,460
2016-02-11T10:59:13.378Z,485
2016-02-11T11:00:13.335Z,435
2016-02-11T11:01:13.681Z,415
2016-02-11T11:02:13.340Z,440
2016-02-11T11:03:13.470Z,525
2016-02-11T11:04:13.254Z,645
2016-02-11T11:05:13.225Z,725
2016-02-11T11:06:13.197Z,790
2016-02-11T11:07:13.168Z,790
2016-02-11T11:08:13.140Z,715
2016-02-11T11:09:13.127Z,695
2016-02-11T11:10:13.098Z,755
2016-02-11T11:11:13.101Z,790
2016-02-11T11:12:13.057Z,725
2016-02-11T11:13:13.029Z,710
2016-02-11T11:14:13.000Z,680
2016-02-11T11:15:12.987Z,675
2016-02-11T11:16:12.973Z,685
2016-02-11T11:17:12.946Z,650
2016-02-11T11:18:12.965Z,630
2016-02-11T11:19:12.888Z,605
2016-02-11T11:20:12.860Z,585
2016-02-11T11:21:12.832Z,575
2016-02-11T11:22:12.819Z,580
2016-02-11T11:23:12.790Z,585
2016-02-11T11:24:12.793Z,630
2016-02-11T11:25:12.749Z,620
2016-02-11T11:26:12.734Z,610
2016-02-11T11:27:12.704Z,580
2016-02-11T11:28:12.692Z,600
2016-02-11T11:29:12.647Z,605
2016-02-11T11:30:12.666Z,585
2016-02-11T11:31:12.606Z,565
2016-02-11T11:32:12.608Z,545
2016-02-11T11:33:12.565Z,525
2016-02-11T11:34:12.567Z,520
2016-02-11T11:35:12.519Z,535
2016-02-11T11:36:12.508Z,525
2016-02-11T11:37:12.463Z,515
2016-02-11T11:38:12.449Z,510
2016-02-11T11:39:12.422Z,495
2016-02-11T11:40:12.393Z,490
2016-02-11T11:41:12.396Z,495
2016-02-11T11:42:12.429Z,495
2016-02-11T11:43:12.355Z,495
2016-02-11T11:44:12.326Z,515
2016-02-11T11:45:12.283Z,525
2016-02-11T11:46:12.253Z,520
2016-02-11T11:47:12.241Z,555
2016-02-11T11:48:12.228Z,605
2016-02-11T11:49:12.183Z,600
2016-02-11T11:50:12.202Z,540
2016-02-11T11:51:12.215Z,535
2016-02-11T11:52:12.125Z,480
2016-02-11T11:53:11.939Z,480
2016-02-11T11:54:11.916Z,460
2016-02-11T11:55:11.731Z,455
2016-02-11T11:56:11.890Z,480
2016-02-11T11:57:11.853Z,505
2016-02-11T11:58:11.981Z,515
2016-02-11T11:59:12.144Z,505
2016-02-11T12:00:12.934Z,535
2016-02-11T12:01:11.936Z,605
2016-02-11T12:02:11.939Z,705
2016-02-11T12:03:11.880Z,660
2016-02-11T12:04:12.179Z,615
2016-02-11T12:05:11.822Z,610
2016-02-11T12:06:12.075Z,625
2016-02-11T12:07:11.749Z,635
2016-02-11T12:08:11.736Z,590
2016-02-11T12:09:11.724Z,560
2016-02-11T12:10:11.711Z,600
2016-02-11T12:11:11.667Z,660
2016-02-11T12:12:11.638Z,625
2016-02-11T12:13:11.625Z,705
2016-02-11T12:14:11.580Z,785
2016-02-11T12:15:11.583Z,660
2016-02-11T12:16:11.540Z,580
2016-02-11T12:17:11.543Z,545
2016-02-11T12:18:11.499Z,545
2016-02-11T12:19:11.501Z,485
2016-02-11T12:20:11.488Z,400
2016-02-11T12:21:11.818Z,360
2016-02-11T12:22:11.431Z,410
2016-02-11T12:23:11.388Z,500
2016-02-11T12:24:11.392Z,570
2016-02-11T12:25:11.331Z,575
2016-02-11T12:26:11.350Z,525
2016-02-11T12:27:11.289Z,530
2016-02-11T12:28:11.279Z,475
2016-02-11T12:29:11.267Z,420
2016-02-11T12:30:11.223Z,395
2016-02-11T12:31:11.069Z,355
2016-02-11T12:32:11.171Z,325
2016-02-11T12:33:11.159Z,325
2016-02-11T12:34:11.131Z,345
2016-02-11T12:35:11.101Z,345
2016-02-11T12:36:11.104Z,355
2016-02-11T12:37:11.061Z,395
2016-02-11T12:38:11.049Z,425
2016-02-11T12:39:11.083Z,430
2016-02-11T12:40:10.992Z,430
2016-02-11T12:41:10.963Z,435
2016-02-11T12:42:10.935Z,430
2016-02-11T12:43:10.922Z,435
2016-02-11T12:44:10.893Z,440
2016-02-11T12:45:10.880Z,460
2016-02-11T12:46:10.852Z,485
2016-02-11T12:47:10.839Z,470
2016-02-11T12:48:10.842Z,440
2016-02-11T12:49:10.783Z,420
2016-02-11T12:50:10.755Z,415
2016-02-11T12:51:10.741Z,415
2016-02-11T12:52:10.713Z,415
2016-02-11T12:53:10.683Z,415
2016-02-11T12:54:10.672Z,425
2016-02-11T12:55:10.643Z,435
2016-02-11T12:56:10.614Z,435
2016-02-11T12:57:10.586Z,445
2016-02-11T12:58:10.557Z,490
2016-02-11T12:59:10.560Z,500
2016-02-11T13:00:10.517Z,500
2016-02-11T13:01:10.488Z,500
2016-02-11T13:02:10.574Z,500
2016-02-11T13:03:11.077Z,495
2016-02-11T13:04:10.423Z,500
2016-02-11T13:05:10.394Z,500
2016-02-11T13:06:10.398Z,470
2016-02-11T13:07:10.353Z,465
2016-02-11T13:08:10.340Z,490
2016-02-11T13:09:10.296Z,485
2016-02-11T13:10:10.268Z,455
2016-02-11T13:11:10.241Z,450
2016-02-11T13:12:10.244Z,450
2016-02-11T13:13:10.216Z,455
2016-02-11T13:14:10.266Z,465
2016-02-11T13:15:10.158Z,480
2016-02-11T13:16:10.130Z,470
2016-02-11T13:17:10.102Z,470
2016-02-11T13:18:10.088Z,475
2016-02-11T13:19:10.341Z,500
2016-02-11T13:20:10.064Z,555
2016-02-11T13:21:10.019Z,595
2016-02-11T13:22:09.991Z,585
2016-02-11T13:23:09.964Z,565
2016-02-11T13:24:09.935Z,550
2016-02-11T13:25:09.923Z,535
2016-02-11T13:26:09.894Z,510
2016-02-11T13:27:09.864Z,480
2016-02-11T13:28:09.836Z,470
2016-02-11T13:29:10.386Z,455
2016-02-11T13:30:09.795Z,425
2016-02-11T13:31:09.782Z,405
2016-02-11T13:32:09.753Z,410
2016-02-11T13:33:09.743Z,420
2016-02-11T13:34:09.699Z,435
2016-02-11T13:35:09.669Z,450
2016-02-11T13:36:09.657Z,455
2016-02-11T13:37:09.629Z,465
2016-02-11T13:38:09.615Z,470
2016-02-11T13:39:09.603Z,470
2016-02-11T13:40:09.544Z,475
2016-02-11T13:41:09.577Z,465
2016-02-11T13:42:09.503Z,460
2016-02-11T13:43:09.660Z,450
2016-02-11T13:44:09.460Z,435
2016-02-11T13:45:09.447Z,430
2016-02-11T13:46:09.404Z,425
2016-02-11T13:47:09.391Z,415
2016-02-11T13:48:09.503Z,410
2016-02-11T13:49:09.350Z,400
2016-02-11T13:50:09.337Z,400
2016-02-11T13:51:09.324Z,390
2016-02-11T13:52:09.280Z,390
2016-02-11T13:53:09.267Z,390
2016-02-11T13:54:09.066Z,400
2016-02-11T13:55:09.225Z,380
2016-02-11T13:56:09.181Z,375
2016-02-11T13:57:09.154Z,375
2016-02-11T13:58:09.141Z,385
2016-02-11T13:59:09.111Z,395
2016-02-11T14:00:09.083Z,400
2016-02-11T14:01:09.055Z,400
2016-02-11T14:02:09.027Z,405
2016-02-11T14:03:09.014Z,385
2016-02-11T14:04:08.994Z,365
2016-02-11T14:05:08.970Z,350
2016-02-11T14:06:09.050Z,340
2016-02-11T14:07:08.928Z,355
2016-02-11T14:08:08.886Z,380
2016-02-11T14:09:08.858Z,420
2016-02-11T14:10:08.861Z,440
2016-02-11T14:11:08.832Z,450
2016-02-11T14:12:08.804Z,440
2016-02-11T14:13:08.760Z,400
2016-02-11T14:14:08.747Z,350
2016-02-11T14:15:08.734Z,325